sensor_id;sensor_type;location;lat;lon;timestamp;P1;durP1;ratioP1;P2;durP2;ratioP2
76962;SDS011;65902;51.452;7.198;2023-06-14T00:00:19;8.65;;;7.75;;
76962;SDS011;65902;51.452;7.198;2023-06-14T00:01:20;8.52;;;7.32;;
76962;SDS011;65902;51.452;7.198;2023-06-14T00:02:22;9.55;;;6.80;;
76962;SDS011;65902;51.452;7.198;2023-06-14T00:03:22;10.10;;;7.45;;
76962;SDS011;65902;51.452;7.198;2023-06-14T00:04:24;9.25;;;6.75;;
76962;SDS011;65902;51.452;7.198;2023-06-14T00:05:26;12.20;;;7.07;;
76962;SDS011;65902;51.452;7.198;2023-06-14T00:06:28;11.85;;;7.80;;
76962;SDS011;65902;51.452;7.198;2023-06-14T00:07:38;8.77;;;7.32;;
76962;SDS011;65902;51.452;7.198;2023-06-14T00:08:42;9.65;;;7.63;;
76962;SDS011;65902;51.452;7.198;2023-06-14T00:09:42;10.50;;;7.05;;
76962;SDS011;65902;51.452;7.198;2023-06-14T00:10:43;12.10;;;7.53;;
76962;SDS011;65902;51.452;7.198;2023-06-14T00:11:44;10.63;;;7.97;;
76962;SDS011;65902;51.452;7.198;2023-06-14T00:12:46;8.85;;;6.78;;
76962;SDS011;65902;51.452;7.198;2023-06-14T00:13:47;10.40;;;7.43;;
76962;SDS011;65902;51.452;7.198;2023-06-14T00:14:49;8.32;;;7.13;;
76962;SDS011;65902;51.452;7.198;2023-06-14T00:15:49;9.00;;;6.78;;
76962;SDS011;65902;51.452;7.198;2023-06-14T00:16:50;9.38;;;7.30;;
76962;SDS011;65902;51.452;7.198;2023-06-14T00:17:52;8.65;;;7.07;;
76962;SDS011;65902;51.452;7.198;2023-06-14T00:18:52;8.52;;;7.20;;
76962;SDS011;65902;51.452;7.198;2023-06-14T00:19:53;9.18;;;6.45;;
76962;SDS011;65902;51.452;7.198;2023-06-14T00:20:54;8.35;;;6.82;;
76962;SDS011;65902;51.452;7.198;2023-06-14T00:21:57;11.80;;;7.57;;
76962;SDS011;65902;51.452;7.198;2023-06-14T00:22:58;9.00;;;7.55;;
76962;SDS011;65902;51.452;7.198;2023-06-14T00:23:58;9.40;;;6.93;;
76962;SDS011;65902;51.452;7.198;2023-06-14T00:25:02;9.63;;;7.60;;
76962;SDS011;65902;51.452;7.198;2023-06-14T00:26:03;8.85;;;6.65;;
76962;SDS011;65902;51.452;7.198;2023-06-14T00:27:03;9.68;;;7.07;;
76962;SDS011;65902;51.452;7.198;2023-06-14T00:28:04;10.00;;;6.88;;
76962;SDS011;65902;51.452;7.198;2023-06-14T00:29:07;12.82;;;7.70;;
76962;SDS011;65902;51.452;7.198;2023-06-14T00:30:08;9.40;;;6.85;;
76962;SDS011;65902;51.452;7.198;2023-06-14T00:31:09;9.90;;;7.10;;
76962;SDS011;65902;51.452;7.198;2023-06-14T00:32:09;23.10;;;8.20;;
76962;SDS011;65902;51.452;7.198;2023-06-14T00:33:13;10.15;;;7.97;;
76962;SDS011;65902;51.452;7.198;2023-06-14T00:34:13;10.88;;;6.68;;
76962;SDS011;65902;51.452;7.198;2023-06-14T00:35:14;8.93;;;7.45;;
76962;SDS011;65902;51.452;7.198;2023-06-14T00:36:14;10.35;;;7.45;;
76962;SDS011;65902;51.452;7.198;2023-06-14T00:37:15;9.27;;;7.45;;
76962;SDS011;65902;51.452;7.198;2023-06-14T00:38:15;9.95;;;7.03;;
76962;SDS011;65902;51.452;7.198;2023-06-14T00:39:16;8.98;;;7.13;;
76962;SDS011;65902;51.452;7.198;2023-06-14T00:40:16;9.73;;;7.07;;
76962;SDS011;65902;51.452;7.198;2023-06-14T00:41:17;12.35;;;7.38;;
76962;SDS011;65902;51.452;7.198;2023-06-14T00:42:24;9.07;;;7.53;;
76962;SDS011;65902;51.452;7.198;2023-06-14T00:43:25;10.23;;;7.18;;
76962;SDS011;65902;51.452;7.198;2023-06-14T00:44:25;9.25;;;7.20;;
76962;SDS011;65902;51.452;7.198;2023-06-14T00:45:26;7.57;;;6.78;;
76962;SDS011;65902;51.452;7.198;2023-06-14T00:46:27;9.13;;;5.93;;
76962;SDS011;65902;51.452;7.198;2023-06-14T00:47:27;8.73;;;6.10;;
76962;SDS011;65902;51.452;7.198;2023-06-14T00:48:28;9.30;;;7.47;;
76962;SDS011;65902;51.452;7.198;2023-06-14T00:49:30;9.57;;;6.68;;
76962;SDS011;65902;51.452;7.198;2023-06-14T00:50:31;8.18;;;7.10;;
76962;SDS011;65902;51.452;7.198;2023-06-14T00:51:33;8.30;;;7.25;;
76962;SDS011;65902;51.452;7.198;2023-06-14T00:52:33;9.57;;;6.70;;
76962;SDS011;65902;51.452;7.198;2023-06-14T00:53:35;9.38;;;6.55;;
76962;SDS011;65902;51.452;7.198;2023-06-14T00:54:35;8.32;;;6.82;;
76962;SDS011;65902;51.452;7.198;2023-06-14T00:55:36;7.97;;;7.03;;
76962;SDS011;65902;51.452;7.198;2023-06-14T00:56:36;11.73;;;7.30;;
76962;SDS011;65902;51.452;7.198;2023-06-14T00:57:37;6.65;;;5.95;;
76962;SDS011;65902;51.452;7.198;2023-06-14T00:58:38;10.18;;;6.45;;
76962;SDS011;65902;51.452;7.198;2023-06-14T00:59:43;9.07;;;7.18;;
76962;SDS011;65902;51.452;7.198;2023-06-14T01:00:43;8.48;;;6.40;;
76962;SDS011;65902;51.452;7.198;2023-06-14T01:01:44;8.50;;;6.25;;
76962;SDS011;65902;51.452;7.198;2023-06-14T01:02:45;7.20;;;6.50;;
76962;SDS011;65902;51.452;7.198;2023-06-14T01:03:46;9.65;;;6.60;;
76962;SDS011;65902;51.452;7.198;2023-06-14T01:04:47;10.18;;;7.97;;
76962;SDS011;65902;51.452;7.198;2023-06-14T01:05:51;7.70;;;6.82;;
76962;SDS011;65902;51.452;7.198;2023-06-14T01:10:03;9.15;;;7.10;;
76962;SDS011;65902;51.452;7.198;2023-06-14T01:12:30;10.80;;;6.50;;
76962;SDS011;65902;51.452;7.198;2023-06-14T01:13:32;7.88;;;7.05;;
76962;SDS011;65902;51.452;7.198;2023-06-14T01:14:34;10.13;;;6.65;;
76962;SDS011;65902;51.452;7.198;2023-06-14T01:15:35;8.68;;;5.95;;
76962;SDS011;65902;51.452;7.198;2023-06-14T01:16:36;8.60;;;6.03;;
76962;SDS011;65902;51.452;7.198;2023-06-14T01:17:40;8.00;;;7.15;;
76962;SDS011;65902;51.452;7.198;2023-06-14T01:18:43;8.13;;;6.00;;
76962;SDS011;65902;51.452;7.198;2023-06-14T01:19:48;7.85;;;7.00;;
76962;SDS011;65902;51.452;7.198;2023-06-14T01:20:48;8.05;;;6.63;;
76962;SDS011;65902;51.452;7.198;2023-06-14T01:21:49;7.78;;;5.90;;
76962;SDS011;65902;51.452;7.198;2023-06-14T01:22:54;7.93;;;6.75;;
76962;SDS011;65902;51.452;7.198;2023-06-14T01:23:54;6.95;;;6.22;;
76962;SDS011;65902;51.452;7.198;2023-06-14T01:24:56;8.18;;;6.28;;
76962;SDS011;65902;51.452;7.198;2023-06-14T01:25:56;10.43;;;5.65;;
76962;SDS011;65902;51.452;7.198;2023-06-14T01:27:00;9.98;;;6.57;;
76962;SDS011;65902;51.452;7.198;2023-06-14T01:28:02;9.57;;;5.97;;
76962;SDS011;65902;51.452;7.198;2023-06-14T01:29:03;6.93;;;6.25;;
76962;SDS011;65902;51.452;7.198;2023-06-14T01:30:05;7.32;;;6.22;;
76962;SDS011;65902;51.452;7.198;2023-06-14T01:31:06;8.13;;;7.32;;
76962;SDS011;65902;51.452;7.198;2023-06-14T01:32:07;9.30;;;6.68;;
76962;SDS011;65902;51.452;7.198;2023-06-14T01:33:08;10.48;;;6.80;;
76962;SDS011;65902;51.452;7.198;2023-06-14T01:34:08;6.82;;;5.70;;
76962;SDS011;65902;51.452;7.198;2023-06-14T01:35:09;9.35;;;5.75;;
76962;SDS011;65902;51.452;7.198;2023-06-14T01:36:09;11.00;;;6.20;;
76962;SDS011;65902;51.452;7.198;2023-06-14T01:37:11;8.95;;;6.53;;
76962;SDS011;65902;51.452;7.198;2023-06-14T01:38:13;6.28;;;5.57;;
76962;SDS011;65902;51.452;7.198;2023-06-14T01:39:14;9.10;;;6.50;;
76962;SDS011;65902;51.452;7.198;2023-06-14T01:40:15;8.52;;;6.57;;
76962;SDS011;65902;51.452;7.198;2023-06-14T01:41:16;8.65;;;6.45;;
76962;SDS011;65902;51.452;7.198;2023-06-14T01:42:17;10.25;;;6.25;;
76962;SDS011;65902;51.452;7.198;2023-06-14T01:43:18;8.73;;;6.18;;
76962;SDS011;65902;51.452;7.198;2023-06-14T01:44:19;6.78;;;5.90;;
76962;SDS011;65902;51.452;7.198;2023-06-14T01:45:21;8.25;;;6.95;;
76962;SDS011;65902;51.452;7.198;2023-06-14T01:46:22;9.77;;;5.70;;
76962;SDS011;65902;51.452;7.198;2023-06-14T01:47:23;8.48;;;6.28;;
76962;SDS011;65902;51.452;7.198;2023-06-14T01:48:25;8.40;;;6.43;;
76962;SDS011;65902;51.452;7.198;2023-06-14T01:49:25;7.68;;;6.07;;
76962;SDS011;65902;51.452;7.198;2023-06-14T01:50:32;8.82;;;6.65;;
76962;SDS011;65902;51.452;7.198;2023-06-14T01:51:35;7.25;;;6.55;;
76962;SDS011;65902;51.452;7.198;2023-06-14T01:52:36;8.02;;;7.22;;
76962;SDS011;65902;51.452;7.198;2023-06-14T01:53:37;10.30;;;7.03;;
76962;SDS011;65902;51.452;7.198;2023-06-14T01:54:38;7.68;;;6.68;;
76962;SDS011;65902;51.452;7.198;2023-06-14T01:55:41;8.27;;;6.22;;
76962;SDS011;65902;51.452;7.198;2023-06-14T01:56:43;7.90;;;6.85;;
76962;SDS011;65902;51.452;7.198;2023-06-14T01:57:44;7.57;;;6.72;;
76962;SDS011;65902;51.452;7.198;2023-06-14T01:58:45;7.38;;;6.68;;
76962;SDS011;65902;51.452;7.198;2023-06-14T01:59:47;8.25;;;6.90;;
76962;SDS011;65902;51.452;7.198;2023-06-14T02:00:48;11.98;;;7.57;;
76962;SDS011;65902;51.452;7.198;2023-06-14T02:01:49;10.50;;;6.32;;
76962;SDS011;65902;51.452;7.198;2023-06-14T02:02:49;10.73;;;7.00;;
76962;SDS011;65902;51.452;7.198;2023-06-14T02:03:50;9.98;;;6.88;;
76962;SDS011;65902;51.452;7.198;2023-06-14T02:04:51;10.60;;;7.28;;
76962;SDS011;65902;51.452;7.198;2023-06-14T02:05:52;8.68;;;5.75;;
76962;SDS011;65902;51.452;7.198;2023-06-14T02:06:55;7.90;;;6.25;;
76962;SDS011;65902;51.452;7.198;2023-06-14T02:07:55;9.90;;;6.40;;
76962;SDS011;65902;51.452;7.198;2023-06-14T02:08:56;10.20;;;7.22;;
76962;SDS011;65902;51.452;7.198;2023-06-14T02:09:56;8.77;;;6.38;;
76962;SDS011;65902;51.452;7.198;2023-06-14T02:10:57;11.63;;;6.72;;
76962;SDS011;65902;51.452;7.198;2023-06-14T02:11:57;7.93;;;6.28;;
76962;SDS011;65902;51.452;7.198;2023-06-14T02:12:58;8.35;;;6.35;;
76962;SDS011;65902;51.452;7.198;2023-06-14T02:14:01;8.18;;;5.28;;
76962;SDS011;65902;51.452;7.198;2023-06-14T02:15:02;7.68;;;6.10;;
76962;SDS011;65902;51.452;7.198;2023-06-14T02:16:03;7.95;;;5.95;;
76962;SDS011;65902;51.452;7.198;2023-06-14T02:17:04;8.75;;;6.35;;
76962;SDS011;65902;51.452;7.198;2023-06-14T02:18:06;8.02;;;5.93;;
76962;SDS011;65902;51.452;7.198;2023-06-14T02:19:07;8.68;;;5.72;;
76962;SDS011;65902;51.452;7.198;2023-06-14T02:20:08;7.78;;;6.22;;
76962;SDS011;65902;51.452;7.198;2023-06-14T02:21:09;9.38;;;5.80;;
76962;SDS011;65902;51.452;7.198;2023-06-14T02:22:10;9.05;;;6.13;;
76962;SDS011;65902;51.452;7.198;2023-06-14T02:23:10;9.13;;;6.07;;
76962;SDS011;65902;51.452;7.198;2023-06-14T02:24:16;8.95;;;6.45;;
76962;SDS011;65902;51.452;7.198;2023-06-14T02:25:17;10.68;;;6.10;;
76962;SDS011;65902;51.452;7.198;2023-06-14T02:26:18;7.50;;;6.07;;
76962;SDS011;65902;51.452;7.198;2023-06-14T02:27:18;8.45;;;6.90;;
76962;SDS011;65902;51.452;7.198;2023-06-14T02:28:19;9.65;;;7.28;;
76962;SDS011;65902;51.452;7.198;2023-06-14T02:29:19;8.68;;;6.30;;
76962;SDS011;65902;51.452;7.198;2023-06-14T02:30:19;8.00;;;6.72;;
76962;SDS011;65902;51.452;7.198;2023-06-14T02:31:20;10.65;;;6.60;;
76962;SDS011;65902;51.452;7.198;2023-06-14T02:32:21;8.13;;;6.32;;
76962;SDS011;65902;51.452;7.198;2023-06-14T02:33:21;8.95;;;6.15;;
76962;SDS011;65902;51.452;7.198;2023-06-14T02:34:22;7.10;;;6.00;;
76962;SDS011;65902;51.452;7.198;2023-06-14T02:35:22;7.82;;;6.38;;
76962;SDS011;65902;51.452;7.198;2023-06-14T02:36:26;8.40;;;6.25;;
76962;SDS011;65902;51.452;7.198;2023-06-14T02:37:27;8.00;;;6.22;;
76962;SDS011;65902;51.452;7.198;2023-06-14T02:38:30;8.50;;;5.97;;
76962;SDS011;65902;51.452;7.198;2023-06-14T02:39:30;8.73;;;6.88;;
76962;SDS011;65902;51.452;7.198;2023-06-14T02:40:31;6.97;;;5.60;;
76962;SDS011;65902;51.452;7.198;2023-06-14T02:41:31;8.43;;;7.03;;
76962;SDS011;65902;51.452;7.198;2023-06-14T02:42:31;10.48;;;6.65;;
76962;SDS011;65902;51.452;7.198;2023-06-14T02:43:32;9.50;;;6.10;;
76962;SDS011;65902;51.452;7.198;2023-06-14T02:44:33;9.20;;;6.32;;
76962;SDS011;65902;51.452;7.198;2023-06-14T02:45:33;7.63;;;6.05;;
76962;SDS011;65902;51.452;7.198;2023-06-14T02:46:34;7.95;;;6.18;;
76962;SDS011;65902;51.452;7.198;2023-06-14T02:47:34;8.38;;;6.55;;
76962;SDS011;65902;51.452;7.198;2023-06-14T02:48:36;10.85;;;6.25;;
76962;SDS011;65902;51.452;7.198;2023-06-14T02:49:37;8.32;;;7.22;;
76962;SDS011;65902;51.452;7.198;2023-06-14T02:50:39;8.65;;;6.93;;
76962;SDS011;65902;51.452;7.198;2023-06-14T02:51:42;8.32;;;6.72;;
76962;SDS011;65902;51.452;7.198;2023-06-14T02:52:42;6.43;;;5.57;;
76962;SDS011;65902;51.452;7.198;2023-06-14T02:53:46;11.35;;;6.50;;
76962;SDS011;65902;51.452;7.198;2023-06-14T02:54:47;8.20;;;6.20;;
76962;SDS011;65902;51.452;7.198;2023-06-14T02:55:48;6.93;;;6.13;;
76962;SDS011;65902;51.452;7.198;2023-06-14T02:56:49;7.68;;;6.60;;
76962;SDS011;65902;51.452;7.198;2023-06-14T02:57:50;7.75;;;6.93;;
76962;SDS011;65902;51.452;7.198;2023-06-14T02:58:53;7.20;;;5.97;;
76962;SDS011;65902;51.452;7.198;2023-06-14T02:59:53;9.05;;;6.35;;
76962;SDS011;65902;51.452;7.198;2023-06-14T03:00:54;7.30;;;6.30;;
76962;SDS011;65902;51.452;7.198;2023-06-14T03:01:54;8.15;;;6.72;;
76962;SDS011;65902;51.452;7.198;2023-06-14T03:02:57;7.38;;;6.60;;
76962;SDS011;65902;51.452;7.198;2023-06-14T03:04:03;7.80;;;5.53;;
76962;SDS011;65902;51.452;7.198;2023-06-14T03:05:06;8.77;;;5.88;;
76962;SDS011;65902;51.452;7.198;2023-06-14T03:06:07;6.82;;;5.97;;
76962;SDS011;65902;51.452;7.198;2023-06-14T03:07:08;7.65;;;5.82;;
76962;SDS011;65902;51.452;7.198;2023-06-14T03:08:15;9.05;;;5.95;;
76962;SDS011;65902;51.452;7.198;2023-06-14T03:09:17;7.03;;;5.80;;
76962;SDS011;65902;51.452;7.198;2023-06-14T03:10:17;9.50;;;6.20;;
76962;SDS011;65902;51.452;7.198;2023-06-14T03:11:17;8.65;;;5.50;;
76962;SDS011;65902;51.452;7.198;2023-06-14T03:12:20;8.52;;;6.55;;
76962;SDS011;65902;51.452;7.198;2023-06-14T03:13:21;7.57;;;6.47;;
76962;SDS011;65902;51.452;7.198;2023-06-14T03:14:22;8.07;;;5.85;;
76962;SDS011;65902;51.452;7.198;2023-06-14T03:15:23;7.10;;;5.75;;
76962;SDS011;65902;51.452;7.198;2023-06-14T03:16:25;9.90;;;6.90;;
76962;SDS011;65902;51.452;7.198;2023-06-14T03:17:25;7.10;;;5.70;;
76962;SDS011;65902;51.452;7.198;2023-06-14T03:18:30;7.68;;;6.15;;
76962;SDS011;65902;51.452;7.198;2023-06-14T03:19:31;10.45;;;6.85;;
76962;SDS011;65902;51.452;7.198;2023-06-14T03:20:31;7.32;;;5.65;;
76962;SDS011;65902;51.452;7.198;2023-06-14T03:21:33;8.27;;;5.82;;
76962;SDS011;65902;51.452;7.198;2023-06-14T03:22:35;10.43;;;6.07;;
76962;SDS011;65902;51.452;7.198;2023-06-14T03:23:35;9.15;;;5.55;;
76962;SDS011;65902;51.452;7.198;2023-06-14T03:24:35;7.57;;;5.53;;
76962;SDS011;65902;51.452;7.198;2023-06-14T03:25:36;7.47;;;6.38;;
76962;SDS011;65902;51.452;7.198;2023-06-14T03:26:39;6.93;;;5.97;;
76962;SDS011;65902;51.452;7.198;2023-06-14T03:27:39;8.65;;;6.03;;
76962;SDS011;65902;51.452;7.198;2023-06-14T03:28:40;8.10;;;6.03;;
76962;SDS011;65902;51.452;7.198;2023-06-14T03:29:41;6.63;;;5.93;;
76962;SDS011;65902;51.452;7.198;2023-06-14T03:30:42;10.18;;;6.18;;
76962;SDS011;65902;51.452;7.198;2023-06-14T03:31:55;9.27;;;5.50;;
76962;SDS011;65902;51.452;7.198;2023-06-14T03:32:56;6.93;;;5.13;;
76962;SDS011;65902;51.452;7.198;2023-06-14T03:33:57;7.03;;;6.00;;
76962;SDS011;65902;51.452;7.198;2023-06-14T03:34:58;8.80;;;5.47;;
76962;SDS011;65902;51.452;7.198;2023-06-14T03:35:58;9.70;;;6.20;;
76962;SDS011;65902;51.452;7.198;2023-06-14T03:36:59;8.20;;;6.68;;
76962;SDS011;65902;51.452;7.198;2023-06-14T03:37:59;8.77;;;6.18;;
76962;SDS011;65902;51.452;7.198;2023-06-14T03:39:00;6.32;;;5.10;;
76962;SDS011;65902;51.452;7.198;2023-06-14T03:40:00;10.15;;;5.55;;
76962;SDS011;65902;51.452;7.198;2023-06-14T03:41:01;8.93;;;5.97;;
76962;SDS011;65902;51.452;7.198;2023-06-14T03:42:02;7.88;;;5.50;;
76962;SDS011;65902;51.452;7.198;2023-06-14T03:43:03;8.45;;;5.93;;
76962;SDS011;65902;51.452;7.198;2023-06-14T03:44:04;9.13;;;6.40;;
76962;SDS011;65902;51.452;7.198;2023-06-14T03:45:05;7.35;;;6.28;;
76962;SDS011;65902;51.452;7.198;2023-06-14T03:46:06;7.35;;;5.25;;
76962;SDS011;65902;51.452;7.198;2023-06-14T03:47:06;8.50;;;6.13;;
76962;SDS011;65902;51.452;7.198;2023-06-14T03:48:08;6.68;;;5.75;;
76962;SDS011;65902;51.452;7.198;2023-06-14T03:49:09;6.63;;;5.40;;
76962;SDS011;65902;51.452;7.198;2023-06-14T03:50:10;6.45;;;5.78;;
76962;SDS011;65902;51.452;7.198;2023-06-14T03:51:11;6.97;;;6.15;;
76962;SDS011;65902;51.452;7.198;2023-06-14T03:52:12;7.05;;;6.32;;
76962;SDS011;65902;51.452;7.198;2023-06-14T03:53:14;6.63;;;5.93;;
76962;SDS011;65902;51.452;7.198;2023-06-14T03:54:14;7.72;;;5.72;;
76962;SDS011;65902;51.452;7.198;2023-06-14T03:55:15;7.38;;;5.85;;
76962;SDS011;65902;51.452;7.198;2023-06-14T03:56:17;9.32;;;6.68;;
76962;SDS011;65902;51.452;7.198;2023-06-14T03:57:17;9.63;;;5.35;;
76962;SDS011;65902;51.452;7.198;2023-06-14T03:58:18;7.50;;;5.55;;
76962;SDS011;65902;51.452;7.198;2023-06-14T03:59:18;7.15;;;5.38;;
76962;SDS011;65902;51.452;7.198;2023-06-14T04:00:20;6.88;;;5.82;;
76962;SDS011;65902;51.452;7.198;2023-06-14T04:01:20;9.43;;;5.85;;
76962;SDS011;65902;51.452;7.198;2023-06-14T04:02:21;6.80;;;5.53;;
76962;SDS011;65902;51.452;7.198;2023-06-14T04:03:23;6.57;;;5.35;;
76962;SDS011;65902;51.452;7.198;2023-06-14T04:04:25;10.25;;;6.22;;
76962;SDS011;65902;51.452;7.198;2023-06-14T04:05:30;8.73;;;5.82;;
76962;SDS011;65902;51.452;7.198;2023-06-14T04:06:31;8.63;;;5.30;;
76962;SDS011;65902;51.452;7.198;2023-06-14T04:07:33;9.35;;;7.65;;
76962;SDS011;65902;51.452;7.198;2023-06-14T04:08:40;7.40;;;6.35;;
76962;SDS011;65902;51.452;7.198;2023-06-14T04:09:42;7.88;;;5.65;;
76962;SDS011;65902;51.452;7.198;2023-06-14T04:10:42;10.02;;;6.88;;
76962;SDS011;65902;51.452;7.198;2023-06-14T04:11:42;10.27;;;5.75;;
76962;SDS011;65902;51.452;7.198;2023-06-14T04:12:43;9.93;;;5.25;;
76962;SDS011;65902;51.452;7.198;2023-06-14T04:13:43;9.82;;;7.15;;
76962;SDS011;65902;51.452;7.198;2023-06-14T04:14:44;6.60;;;5.93;;
76962;SDS011;65902;51.452;7.198;2023-06-14T04:15:45;7.35;;;5.75;;
76962;SDS011;65902;51.452;7.198;2023-06-14T04:16:46;7.70;;;5.53;;
76962;SDS011;65902;51.452;7.198;2023-06-14T04:17:46;9.57;;;6.60;;
76962;SDS011;65902;51.452;7.198;2023-06-14T04:18:46;7.85;;;5.55;;
76962;SDS011;65902;51.452;7.198;2023-06-14T04:19:48;7.13;;;5.35;;
76962;SDS011;65902;51.452;7.198;2023-06-14T04:20:49;6.60;;;5.05;;
76962;SDS011;65902;51.452;7.198;2023-06-14T04:21:50;7.25;;;5.70;;
76962;SDS011;65902;51.452;7.198;2023-06-14T04:22:51;8.88;;;5.88;;
76962;SDS011;65902;51.452;7.198;2023-06-14T04:23:53;7.47;;;5.97;;
76962;SDS011;65902;51.452;7.198;2023-06-14T04:24:56;7.18;;;5.20;;
76962;SDS011;65902;51.452;7.198;2023-06-14T04:25:57;6.13;;;5.53;;
76962;SDS011;65902;51.452;7.198;2023-06-14T04:27:03;5.95;;;5.28;;
76962;SDS011;65902;51.452;7.198;2023-06-14T04:28:04;6.43;;;5.30;;
76962;SDS011;65902;51.452;7.198;2023-06-14T04:29:05;7.25;;;5.13;;
76962;SDS011;65902;51.452;7.198;2023-06-14T04:30:07;7.32;;;5.13;;
76962;SDS011;65902;51.452;7.198;2023-06-14T04:31:08;8.43;;;5.15;;
76962;SDS011;65902;51.452;7.198;2023-06-14T04:32:08;7.57;;;5.60;;
76962;SDS011;65902;51.452;7.198;2023-06-14T04:33:11;10.00;;;5.22;;
76962;SDS011;65902;51.452;7.198;2023-06-14T04:34:11;10.85;;;5.28;;
76962;SDS011;65902;51.452;7.198;2023-06-14T04:35:16;8.55;;;5.38;;
76962;SDS011;65902;51.452;7.198;2023-06-14T04:36:17;12.50;;;8.38;;
76962;SDS011;65902;51.452;7.198;2023-06-14T04:37:18;9.40;;;6.30;;
76962;SDS011;65902;51.452;7.198;2023-06-14T04:38:19;12.80;;;5.68;;
76962;SDS011;65902;51.452;7.198;2023-06-14T04:39:25;7.43;;;5.00;;
76962;SDS011;65902;51.452;7.198;2023-06-14T04:40:27;10.68;;;5.72;;
76962;SDS011;65902;51.452;7.198;2023-06-14T04:41:28;9.50;;;5.75;;
76962;SDS011;65902;51.452;7.198;2023-06-14T04:42:29;9.63;;;5.68;;
76962;SDS011;65902;51.452;7.198;2023-06-14T04:43:31;11.30;;;6.88;;
76962;SDS011;65902;51.452;7.198;2023-06-14T04:44:38;5.43;;;4.47;;
76962;SDS011;65902;51.452;7.198;2023-06-14T04:45:39;6.68;;;4.40;;
76962;SDS011;65902;51.452;7.198;2023-06-14T04:46:41;7.70;;;4.43;;
76962;SDS011;65902;51.452;7.198;2023-06-14T04:47:47;8.57;;;4.90;;
76962;SDS011;65902;51.452;7.198;2023-06-14T04:48:49;6.72;;;5.25;;
76962;SDS011;65902;51.452;7.198;2023-06-14T04:49:50;8.18;;;5.88;;
76962;SDS011;65902;51.452;7.198;2023-06-14T04:50:53;6.47;;;4.80;;
76962;SDS011;65902;51.452;7.198;2023-06-14T04:51:54;5.90;;;4.20;;
76962;SDS011;65902;51.452;7.198;2023-06-14T04:53:01;6.00;;;4.45;;
76962;SDS011;65902;51.452;7.198;2023-06-14T04:54:03;7.35;;;5.10;;
76962;SDS011;65902;51.452;7.198;2023-06-14T04:55:05;7.32;;;4.78;;
76962;SDS011;65902;51.452;7.198;2023-06-14T04:56:07;8.43;;;5.30;;
76962;SDS011;65902;51.452;7.198;2023-06-14T04:57:09;6.63;;;5.03;;
76962;SDS011;65902;51.452;7.198;2023-06-14T04:58:14;11.85;;;6.15;;
76962;SDS011;65902;51.452;7.198;2023-06-14T04:59:15;5.95;;;4.10;;
76962;SDS011;65902;51.452;7.198;2023-06-14T05:00:17;5.45;;;4.50;;
76962;SDS011;65902;51.452;7.198;2023-06-14T05:01:18;7.75;;;5.43;;
76962;SDS011;65902;51.452;7.198;2023-06-14T05:02:18;5.63;;;4.93;;
76962;SDS011;65902;51.452;7.198;2023-06-14T05:03:19;8.20;;;4.53;;
76962;SDS011;65902;51.452;7.198;2023-06-14T05:04:21;6.60;;;5.97;;
76962;SDS011;65902;51.452;7.198;2023-06-14T05:05:22;5.60;;;4.40;;
76962;SDS011;65902;51.452;7.198;2023-06-14T05:06:23;7.22;;;5.43;;
76962;SDS011;65902;51.452;7.198;2023-06-14T05:07:23;9.43;;;5.15;;
76962;SDS011;65902;51.452;7.198;2023-06-14T05:08:24;7.45;;;4.75;;
76962;SDS011;65902;51.452;7.198;2023-06-14T05:09:54;8.18;;;4.60;;
76962;SDS011;65902;51.452;7.198;2023-06-14T05:11:10;8.13;;;5.15;;
76962;SDS011;65902;51.452;7.198;2023-06-14T05:12:36;6.03;;;4.57;;
76962;SDS011;65902;51.452;7.198;2023-06-14T05:13:44;10.52;;;5.20;;
76962;SDS011;65902;51.452;7.198;2023-06-14T05:14:45;7.25;;;4.53;;
76962;SDS011;65902;51.452;7.198;2023-06-14T05:15:45;8.20;;;4.65;;
76962;SDS011;65902;51.452;7.198;2023-06-14T05:16:46;7.30;;;4.47;;
76962;SDS011;65902;51.452;7.198;2023-06-14T05:17:48;6.93;;;4.13;;
76962;SDS011;65902;51.452;7.198;2023-06-14T05:18:55;7.80;;;4.78;;
76962;SDS011;65902;51.452;7.198;2023-06-14T05:19:56;8.38;;;5.05;;
76962;SDS011;65902;51.452;7.198;2023-06-14T05:20:56;9.80;;;4.60;;
76962;SDS011;65902;51.452;7.198;2023-06-14T05:21:57;8.82;;;6.47;;
76962;SDS011;65902;51.452;7.198;2023-06-14T05:22:57;7.07;;;4.43;;
76962;SDS011;65902;51.452;7.198;2023-06-14T05:23:58;6.13;;;5.15;;
76962;SDS011;65902;51.452;7.198;2023-06-14T05:24:59;6.75;;;4.78;;
76962;SDS011;65902;51.452;7.198;2023-06-14T05:26:00;7.53;;;5.05;;
76962;SDS011;65902;51.452;7.198;2023-06-14T05:27:03;5.75;;;4.40;;
76962;SDS011;65902;51.452;7.198;2023-06-14T05:28:04;7.25;;;5.00;;
76962;SDS011;65902;51.452;7.198;2023-06-14T05:29:05;7.05;;;4.63;;
76962;SDS011;65902;51.452;7.198;2023-06-14T05:30:06;8.85;;;5.43;;
76962;SDS011;65902;51.452;7.198;2023-06-14T05:31:07;6.80;;;4.72;;
76962;SDS011;65902;51.452;7.198;2023-06-14T05:32:07;7.30;;;4.75;;
76962;SDS011;65902;51.452;7.198;2023-06-14T05:33:08;5.93;;;4.30;;
76962;SDS011;65902;51.452;7.198;2023-06-14T05:34:09;7.68;;;5.75;;
76962;SDS011;65902;51.452;7.198;2023-06-14T05:35:12;6.25;;;3.78;;
76962;SDS011;65902;51.452;7.198;2023-06-14T05:36:13;7.45;;;3.95;;
76962;SDS011;65902;51.452;7.198;2023-06-14T05:37:14;10.38;;;4.47;;
76962;SDS011;65902;51.452;7.198;2023-06-14T05:38:14;6.22;;;5.15;;
76962;SDS011;65902;51.452;7.198;2023-06-14T05:39:14;6.97;;;5.25;;
76962;SDS011;65902;51.452;7.198;2023-06-14T05:40:15;6.57;;;4.40;;
76962;SDS011;65902;51.452;7.198;2023-06-14T05:41:17;10.25;;;4.82;;
76962;SDS011;65902;51.452;7.198;2023-06-14T05:42:17;8.38;;;5.45;;
76962;SDS011;65902;51.452;7.198;2023-06-14T05:43:18;10.50;;;5.18;;
76962;SDS011;65902;51.452;7.198;2023-06-14T05:44:18;10.25;;;5.38;;
76962;SDS011;65902;51.452;7.198;2023-06-14T05:45:20;8.27;;;5.30;;
76962;SDS011;65902;51.452;7.198;2023-06-14T05:46:21;7.85;;;5.07;;
76962;SDS011;65902;51.452;7.198;2023-06-14T05:47:24;6.85;;;5.30;;
76962;SDS011;65902;51.452;7.198;2023-06-14T05:48:25;9.00;;;6.00;;
76962;SDS011;65902;51.452;7.198;2023-06-14T05:49:26;7.70;;;4.90;;
76962;SDS011;65902;51.452;7.198;2023-06-14T05:50:27;6.95;;;6.25;;
76962;SDS011;65902;51.452;7.198;2023-06-14T05:51:28;6.32;;;4.30;;
76962;SDS011;65902;51.452;7.198;2023-06-14T05:52:32;7.68;;;5.13;;
76962;SDS011;65902;51.452;7.198;2023-06-14T05:53:33;8.80;;;4.65;;
76962;SDS011;65902;51.452;7.198;2023-06-14T05:54:33;7.28;;;4.70;;
76962;SDS011;65902;51.452;7.198;2023-06-14T05:55:34;7.53;;;4.63;;
76962;SDS011;65902;51.452;7.198;2023-06-14T05:56:35;5.78;;;4.63;;
76962;SDS011;65902;51.452;7.198;2023-06-14T05:57:36;7.32;;;4.95;;
76962;SDS011;65902;51.452;7.198;2023-06-14T05:58:36;7.72;;;4.72;;
76962;SDS011;65902;51.452;7.198;2023-06-14T05:59:36;7.07;;;4.85;;
76962;SDS011;65902;51.452;7.198;2023-06-14T06:00:37;8.23;;;4.53;;
76962;SDS011;65902;51.452;7.198;2023-06-14T06:01:37;5.10;;;4.28;;
76962;SDS011;65902;51.452;7.198;2023-06-14T06:02:43;6.90;;;4.80;;
76962;SDS011;65902;51.452;7.198;2023-06-14T06:03:44;10.88;;;4.53;;
76962;SDS011;65902;51.452;7.198;2023-06-14T06:05:48;12.20;;;5.55;;
76962;SDS011;65902;51.452;7.198;2023-06-14T06:06:48;7.22;;;4.07;;
76962;SDS011;65902;51.452;7.198;2023-06-14T06:07:48;6.35;;;4.40;;
76962;SDS011;65902;51.452;7.198;2023-06-14T06:08:50;7.70;;;4.00;;
76962;SDS011;65902;51.452;7.198;2023-06-14T06:09:50;7.18;;;4.05;;
76962;SDS011;65902;51.452;7.198;2023-06-14T06:10:50;6.97;;;4.38;;
76962;SDS011;65902;51.452;7.198;2023-06-14T06:11:51;5.47;;;3.75;;
76962;SDS011;65902;51.452;7.198;2023-06-14T06:12:51;7.72;;;5.38;;
76962;SDS011;65902;51.452;7.198;2023-06-14T06:13:53;8.50;;;3.85;;
76962;SDS011;65902;51.452;7.198;2023-06-14T06:14:53;4.88;;;4.13;;
76962;SDS011;65902;51.452;7.198;2023-06-14T06:15:53;7.45;;;5.50;;